createdAt,value
2019-05-13T00:01:01.281Z,1.83
2019-05-13T00:03:33.395Z,2.60
2019-05-13T00:34:24.304Z,1.90
2019-05-13T00:37:07.847Z,1.90
2019-05-13T00:39:27.415Z,2.00
2019-05-13T00:42:16.766Z,2.13
2019-05-13T00:45:25.136Z,1.60
2019-05-13T00:50:45.009Z,1.67
2019-05-13T00:53:15.427Z,1.50
2019-05-13T00:55:48.263Z,1.70
2019-05-13T00:58:24.180Z,1.40
2019-05-13T01:01:07.832Z,1.83
2019-05-13T01:03:40.370Z,1.83
2019-05-13T01:12:18.275Z,1.97
2019-05-13T01:15:13.264Z,1.97
2019-05-13T01:18:15.669Z,1.80
2019-05-13T01:20:55.667Z,1.70
2019-05-13T01:23:45.339Z,1.70
2019-05-13T01:29:43.531Z,2.00
2019-05-13T01:32:35.248Z,1.73
2019-05-13T01:35:24.961Z,1.70
2019-05-13T01:41:24.033Z,1.90
2019-05-13T01:43:54.973Z,1.80
2019-05-13T01:46:44.329Z,1.90
2019-05-13T01:49:14.769Z,1.83
2019-05-13T01:51:45.087Z,1.83
2019-05-13T01:54:34.375Z,1.60
2019-05-13T01:57:23.940Z,1.90
2019-05-13T02:00:35.445Z,1.77
2019-05-13T02:03:06.375Z,1.67
2019-05-13T02:05:55.912Z,1.97
2019-05-13T02:08:45.396Z,1.80
2019-05-13T02:11:15.715Z,2.00
2019-05-13T02:14:23.964Z,1.97
2019-05-13T02:16:54.508Z,2.07
2019-05-13T02:19:47.282Z,1.90
2019-05-13T02:22:18.445Z,1.77
2019-05-13T02:24:53.639Z,1.63
2019-05-13T02:27:44.050Z,1.80
2019-05-13T02:30:16.805Z,1.70
2019-05-13T02:32:47.518Z,1.90
2019-05-13T02:35:36.850Z,1.97
2019-05-13T02:38:30.834Z,2.10
2019-05-13T02:41:17.777Z,2.00
2019-05-13T02:43:52.384Z,1.73
2019-05-13T02:46:39.875Z,1.70
2019-05-13T02:49:32.445Z,1.90
2019-05-13T02:52:03.191Z,1.77
2019-05-13T02:57:52.691Z,1.97
2019-05-13T03:00:23.560Z,2.07
2019-05-13T03:05:52.730Z,2.30
2019-05-13T03:08:46.273Z,1.60
2019-05-13T03:11:22.904Z,2.10
2019-05-13T03:14:07.855Z,2.10
2019-05-13T03:19:24.862Z,1.90
2019-05-13T03:21:56.054Z,2.30
2019-05-13T03:24:45.352Z,2.00
2019-05-13T03:27:20.208Z,1.90
2019-05-13T03:30:08.334Z,2.10
2019-05-13T03:33:02.341Z,2.50
2019-05-13T03:35:35.953Z,2.20
2019-05-13T03:38:23.448Z,2.07
2019-05-13T03:41:14.287Z,1.90
2019-05-13T03:44:05.067Z,2.10
2019-05-13T03:46:55.180Z,2.20
2019-05-13T03:49:44.670Z,2.23
2019-05-13T03:52:18.380Z,2.43
2019-05-13T03:55:12.826Z,2.23
2019-05-13T03:58:02.935Z,2.03
2019-05-13T04:00:53.998Z,2.33
2019-05-13T04:03:44.140Z,2.10
2019-05-13T04:06:34.698Z,2.40
2019-05-13T04:09:31.091Z,2.10
2019-05-13T04:11:56.573Z,2.20
2019-05-13T04:14:47.257Z,2.03
2019-05-13T04:17:17.858Z,2.67
2019-05-13T04:20:07.993Z,2.70
2019-05-13T04:22:57.434Z,2.00
2019-05-13T04:25:27.890Z,2.03
2019-05-13T04:27:58.492Z,2.00
2019-05-13T04:30:32.731Z,2.10
2019-05-13T04:33:02.368Z,1.90
2019-05-13T04:35:33.544Z,2.00
2019-05-13T04:38:23.271Z,2.27
2019-05-13T04:40:53.672Z,2.10
2019-05-13T04:43:34.775Z,2.00
2019-05-13T04:46:23.164Z,3.23
2019-05-13T04:48:53.688Z,2.20
2019-05-13T04:51:24.509Z,1.90
2019-05-13T04:54:13.923Z,2.00
2019-05-13T04:56:45.548Z,2.30
2019-05-13T04:59:40.079Z,2.23
2019-05-13T05:02:39.889Z,2.10
2019-05-13T05:05:45.770Z,1.80
2019-05-13T05:08:57.989Z,1.90
2019-05-13T05:12:02.122Z,2.10
2019-05-13T05:14:59.165Z,3.93
2019-05-13T05:18:06.637Z,3.50
2019-05-13T05:21:08.831Z,3.27
2019-05-13T05:27:11.937Z,1.87
2019-05-13T05:30:22.697Z,2.30
2019-05-13T05:33:23.383Z,1.90
2019-05-13T05:36:21.843Z,2.23
2019-05-13T05:39:16.323Z,2.07
2019-05-13T05:42:07.120Z,2.40
2019-05-13T05:44:39.555Z,2.10
2019-05-13T05:47:31.784Z,2.07
2019-05-13T05:50:23.003Z,2.03
2019-05-13T05:53:13.151Z,1.80
2019-05-13T05:55:43.642Z,1.90
2019-05-13T06:01:24.309Z,1.97
2019-05-13T06:04:08.239Z,1.80
2019-05-13T06:06:41.382Z,1.70
2019-05-13T06:09:13.968Z,2.07
2019-05-13T06:11:44.428Z,1.67
2019-05-13T06:14:17.177Z,2.40
2019-05-13T06:16:47.778Z,2.10
2019-05-13T06:19:18.705Z,1.80
2019-05-13T06:22:08.227Z,2.13
2019-05-13T06:24:38.829Z,1.77
2019-05-13T06:27:31.680Z,1.73
2019-05-13T06:30:02.477Z,1.97
2019-05-13T06:32:33.401Z,1.73
2019-05-13T06:38:17.424Z,1.63
2019-05-13T06:41:02.481Z,1.83
2019-05-13T06:43:24.449Z,1.83
2019-05-13T06:45:55.540Z,2.00
2019-05-13T06:48:26.198Z,1.70
2019-05-13T06:51:22.229Z,2.47
2019-05-13T06:54:07.216Z,3.50
2019-05-13T06:56:37.541Z,4.90
2019-05-13T06:59:14.156Z,1.90
2019-05-13T07:01:56.066Z,1.97
2019-05-13T07:04:46.811Z,2.33
2019-05-13T07:07:36.447Z,1.87
2019-05-13T07:10:07.193Z,1.70
2019-05-13T07:15:35.974Z,1.80
2019-05-13T07:18:06.767Z,1.90
2019-05-13T07:20:37.393Z,1.80
2019-05-13T07:23:31.881Z,1.63
2019-05-13T07:26:22.314Z,1.53
2019-05-13T07:29:05.918Z,1.60
2019-05-13T07:31:36.775Z,1.90
2019-05-13T07:34:07.500Z,1.77
2019-05-13T07:36:44.193Z,1.80
2019-05-13T07:39:55.475Z,1.60
2019-05-13T07:42:47.091Z,1.70
2019-05-13T07:48:31.851Z,1.80
2019-05-13T07:54:11.470Z,1.90
2019-05-13T07:59:53.171Z,1.57
2019-05-13T08:02:24.245Z,1.77
2019-05-13T08:04:54.823Z,1.90
2019-05-13T08:07:51.377Z,1.53
2019-05-13T08:10:21.952Z,2.03
2019-05-13T08:12:52.521Z,1.60
2019-05-13T08:15:23.532Z,1.67
2019-05-13T08:18:13.041Z,1.90
2019-05-13T08:20:44.607Z,1.70
2019-05-13T08:23:15.174Z,1.37
2019-05-13T08:26:04.717Z,1.60
2019-05-13T08:28:35.315Z,1.70
2019-05-13T08:31:33.181Z,1.77
2019-05-13T08:34:16.372Z,1.33
2019-05-13T08:36:55.341Z,1.40
2019-05-13T08:39:44.728Z,1.87
2019-05-13T08:42:19.864Z,3.13
2019-05-13T08:45:07.778Z,1.50
2019-05-13T08:47:42.096Z,1.50
2019-05-13T08:50:33.857Z,1.87
2019-05-13T08:53:04.255Z,1.57
2019-05-13T08:55:36.350Z,1.40
2019-05-13T08:58:07.087Z,1.40
2019-05-13T09:00:49.429Z,1.70
2019-05-13T09:03:21.574Z,1.23
2019-05-13T09:05:52.780Z,1.70
2019-05-13T09:11:22.199Z,1.27
2019-05-13T09:17:01.952Z,1.43
2019-05-13T09:19:33.678Z,3.50
2019-05-13T09:22:04.412Z,1.60
2019-05-13T09:24:37.837Z,1.33
2019-05-13T09:27:15.303Z,1.40
2019-05-13T09:29:48.160Z,1.43
2019-05-13T09:35:16.418Z,1.37
2019-05-13T09:38:05.698Z,1.30
2019-05-13T09:40:55.074Z,1.33
2019-05-13T09:43:25.492Z,1.20
2019-05-13T09:46:01.853Z,1.20
2019-05-13T09:48:32.291Z,1.20
2019-05-13T09:51:02.811Z,1.37
2019-05-13T09:53:36.422Z,1.40
2019-05-13T09:56:25.558Z,1.33
2019-05-13T09:59:15.180Z,1.40
2019-05-13T10:02:39.017Z,1.20
2019-05-13T10:05:16.275Z,1.20
2019-05-13T10:07:50.716Z,1.40
2019-05-13T10:10:22.337Z,1.50
2019-05-13T10:13:08.139Z,1.13
2019-05-13T10:15:32.344Z,1.20
2019-05-13T10:18:02.039Z,1.20
2019-05-13T10:20:58.457Z,1.07
2019-05-13T10:23:27.985Z,1.30
2019-05-13T10:26:03.287Z,1.30
2019-05-13T10:28:34.040Z,1.40
2019-05-13T10:31:24.674Z,1.53
2019-05-13T10:33:55.116Z,1.47
2019-05-13T10:36:25.531Z,1.60
2019-05-13T10:38:57.892Z,1.40
2019-05-13T10:41:28.527Z,1.43
2019-05-13T10:44:17.828Z,1.30
2019-05-13T10:46:48.145Z,1.00
2019-05-13T10:49:22.168Z,1.33
2019-05-13T10:51:52.692Z,1.60
2019-05-13T10:54:48.839Z,1.40
2019-05-13T10:58:02.404Z,1.30
2019-05-13T11:00:54.798Z,1.10
2019-05-13T11:03:44.164Z,1.50
2019-05-13T11:06:15.845Z,1.70
2019-05-13T11:08:46.492Z,1.50
2019-05-13T11:11:35.851Z,1.40
2019-05-13T11:14:27.539Z,1.50
2019-05-13T11:17:16.923Z,1.20
2019-05-13T11:20:06.856Z,1.30
2019-05-13T11:22:37.401Z,1.70
2019-05-13T11:25:42.464Z,1.60
2019-05-13T11:28:19.366Z,1.33
2019-05-13T11:31:03.524Z,1.40
2019-05-13T11:33:53.058Z,1.50
2019-05-13T11:36:45.126Z,1.37
2019-05-13T11:39:15.552Z,1.60
2019-05-13T11:42:19.668Z,1.20
2019-05-13T11:45:15.105Z,1.37
2019-05-13T11:51:26.848Z,1.50
2019-05-13T11:57:22.063Z,1.10
2019-05-13T12:00:13.671Z,1.57
2019-05-13T12:02:53.828Z,1.30
2019-05-13T12:05:26.609Z,1.20
2019-05-13T12:07:58.178Z,1.40
2019-05-13T12:10:47.751Z,1.30
2019-05-13T12:13:37.287Z,1.30
2019-05-13T12:16:28.442Z,1.20
2019-05-13T12:18:58.905Z,1.27
2019-05-13T12:22:16.518Z,1.20
2019-05-13T12:24:46.985Z,1.17
2019-05-13T12:27:41.919Z,1.17
2019-05-13T12:33:22.691Z,1.40
2019-05-13T12:42:04.137Z,1.50
2019-05-13T12:44:59.396Z,1.30
2019-05-13T12:50:23.295Z,2.17
2019-05-13T12:53:12.860Z,1.87
2019-05-13T12:59:13.679Z,1.30
2019-05-13T13:02:24.679Z,1.27
2019-05-13T13:05:13.567Z,1.87
2019-05-13T13:08:16.105Z,1.53
2019-05-13T13:11:00.535Z,1.47
2019-05-13T13:16:14.511Z,1.13
2019-05-13T13:18:45.725Z,1.27
2019-05-13T13:21:37.552Z,1.50
2019-05-13T13:24:26.598Z,1.20
2019-05-13T13:26:57.759Z,1.50
2019-05-13T13:29:47.694Z,1.13
2019-05-13T13:32:32.187Z,1.40
2019-05-13T13:35:03.732Z,1.77
2019-05-13T13:37:53.246Z,1.30
2019-05-13T13:40:45.554Z,1.30
2019-05-13T13:43:37.047Z,1.37
2019-05-13T13:46:36.863Z,1.17
2019-05-13T13:49:36.031Z,1.37
2019-05-13T13:52:06.591Z,1.20
2019-05-13T13:54:44.291Z,1.27
2019-05-13T13:57:13.927Z,1.63
2019-05-13T14:00:22.654Z,1.63
2019-05-13T14:02:42.380Z,1.43
2019-05-13T14:05:38.984Z,1.40
2019-05-13T14:08:28.481Z,1.47
2019-05-13T14:11:23.134Z,1.50
2019-05-13T14:14:05.221Z,1.33
2019-05-13T14:16:35.591Z,1.50
2019-05-13T14:19:07.367Z,1.70
2019-05-13T14:22:01.110Z,1.27
2019-05-13T14:24:51.823Z,1.27
2019-05-13T14:27:42.106Z,1.43
2019-05-13T14:30:51.678Z,1.13
2019-05-13T14:33:04.058Z,1.20
2019-05-13T14:35:53.627Z,1.53
2019-05-13T14:38:42.977Z,1.43
2019-05-13T14:41:13.368Z,1.93
2019-05-13T14:43:45.756Z,1.43
2019-05-13T14:46:46.293Z,1.20
2019-05-13T14:49:26.167Z,1.40
2019-05-13T14:51:56.632Z,1.10
2019-05-13T14:54:28.175Z,1.37
2019-05-13T14:57:21.779Z,1.30
2019-05-13T14:59:51.817Z,1.60
2019-05-13T15:02:42.071Z,1.40
2019-05-13T15:05:12.809Z,1.17
2019-05-13T15:08:05.498Z,1.20
2019-05-13T15:10:54.850Z,1.10
2019-05-13T15:13:26.671Z,1.20
2019-05-13T15:16:34.952Z,1.50
2019-05-13T15:19:05.772Z,1.27
2019-05-13T15:22:05.884Z,1.00
2019-05-13T15:24:43.340Z,1.40
2019-05-13T15:27:38.396Z,1.27
2019-05-13T15:30:52.750Z,1.60
2019-05-13T15:33:42.430Z,1.10
2019-05-13T15:36:15.985Z,1.30
2019-05-13T15:39:09.565Z,1.40
2019-05-13T15:42:31.831Z,1.37
2019-05-13T15:44:46.384Z,1.30
2019-05-13T15:47:24.085Z,1.20
2019-05-13T15:49:50.467Z,1.20
2019-05-13T15:52:43.515Z,1.33
2019-05-13T15:55:15.313Z,1.20
2019-05-13T15:57:48.526Z,1.60
2019-05-13T16:00:41.917Z,1.47
2019-05-13T16:03:14.697Z,1.07
2019-05-13T16:05:45.281Z,1.30
2019-05-13T16:08:22.195Z,1.27
2019-05-13T16:10:53.468Z,1.30
2019-05-13T16:13:51.771Z,1.30
2019-05-13T16:16:41.658Z,1.40
2019-05-13T16:22:22.849Z,1.20
2019-05-13T16:28:20.098Z,1.30
2019-05-13T16:31:02.439Z,1.50
2019-05-13T16:33:44.636Z,1.00
2019-05-13T16:36:15.031Z,1.23
2019-05-13T16:39:12.293Z,1.17
2019-05-13T16:42:05.370Z,1.43
2019-05-13T16:44:57.278Z,1.10
2019-05-13T16:47:55.856Z,1.30
2019-05-13T16:50:24.809Z,1.30
2019-05-13T16:53:07.122Z,1.43
2019-05-13T16:55:54.857Z,1.20
2019-05-13T16:58:36.978Z,1.40
2019-05-13T17:03:54.970Z,1.20
2019-05-13T17:06:25.318Z,1.30
2019-05-13T17:08:56.154Z,1.10
2019-05-13T17:11:41.790Z,1.13
2019-05-13T17:16:53.382Z,1.40
2019-05-13T17:22:09.306Z,1.43
2019-05-13T17:25:07.111Z,1.27
2019-05-13T17:27:37.788Z,1.47
2019-05-13T17:33:23.054Z,0.97
2019-05-13T17:36:12.670Z,1.47
2019-05-13T17:39:41.519Z,1.30
2019-05-13T17:42:12.362Z,1.40
2019-05-13T17:44:46.278Z,1.30
2019-05-13T17:47:27.792Z,1.30
2019-05-13T17:49:58.242Z,1.77
2019-05-13T17:52:29.545Z,1.53
2019-05-13T17:55:01.256Z,1.30
2019-05-13T17:57:35.193Z,1.40
2019-05-13T18:00:26.471Z,1.10
2019-05-13T18:03:20.267Z,1.20
2019-05-13T18:06:11.475Z,1.43
2019-05-13T18:09:04.453Z,1.00
2019-05-13T18:12:06.729Z,0.97
2019-05-13T18:14:51.503Z,1.43
2019-05-13T18:17:41.743Z,1.40
2019-05-13T18:20:33.876Z,1.33
2019-05-13T18:23:23.239Z,1.17
2019-05-13T18:26:16.177Z,1.10
2019-05-13T18:28:48.256Z,1.30
2019-05-13T18:31:18.592Z,1.20
2019-05-13T18:34:04.675Z,1.00
2019-05-13T18:36:46.358Z,0.97
2019-05-13T18:39:28.039Z,0.97
2019-05-13T18:42:17.948Z,1.50
2019-05-13T18:45:27.803Z,1.57
2019-05-13T18:48:01.701Z,1.40
2019-05-13T18:50:32.937Z,1.00
2019-05-13T18:53:03.969Z,1.30
2019-05-13T18:55:56.416Z,1.10
2019-05-13T19:02:04.883Z,1.30
2019-05-13T19:05:14.830Z,1.33
2019-05-13T19:08:28.510Z,1.37
2019-05-13T19:11:01.132Z,1.20
2019-05-13T19:13:54.090Z,2.47
2019-05-13T19:16:43.435Z,1.33
2019-05-13T19:22:34.639Z,1.67
2019-05-13T19:25:24.889Z,1.30
2019-05-13T19:27:55.258Z,1.70
2019-05-13T19:31:12.820Z,1.40
2019-05-13T19:33:55.520Z,1.53
2019-05-13T19:36:37.195Z,1.57
2019-05-13T19:39:18.856Z,1.50
2019-05-13T19:41:50.199Z,1.27
2019-05-13T19:44:41.984Z,1.30
2019-05-13T19:48:11.802Z,1.27
2019-05-13T19:50:44.148Z,1.27
2019-05-13T19:57:36.152Z,1.33
2019-05-13T20:00:18.154Z,1.63
2019-05-13T20:06:48.385Z,1.77
2019-05-13T20:09:35.247Z,1.60
2019-05-13T20:11:55.625Z,1.97
2019-05-13T20:14:29.286Z,1.53
2019-05-13T20:17:05.251Z,1.40
2019-05-13T20:19:50.802Z,1.70
2019-05-13T20:22:42.159Z,1.50
2019-05-13T20:25:32.036Z,1.50
2019-05-13T20:28:21.649Z,1.53
2019-05-13T20:31:32.227Z,1.60
2019-05-13T20:34:16.091Z,1.40
2019-05-13T20:37:13.925Z,1.23
2019-05-13T20:40:03.267Z,1.50
2019-05-13T20:42:52.951Z,1.63
2019-05-13T20:45:23.407Z,1.50
2019-05-13T20:50:28.003Z,1.47
2019-05-13T20:56:46.089Z,1.93
2019-05-13T21:02:31.873Z,1.80
2019-05-13T21:05:41.703Z,1.70
2019-05-13T21:15:28.215Z,1.83
2019-05-13T21:18:18.605Z,1.37
2019-05-13T21:21:31.299Z,1.50
2019-05-13T21:24:21.347Z,1.40
2019-05-13T21:27:11.876Z,1.73
2019-05-13T21:30:04.784Z,1.77
2019-05-13T21:33:13.216Z,1.40
2019-05-13T21:36:03.087Z,1.70
2019-05-13T21:38:53.733Z,1.73
2019-05-13T21:41:43.342Z,1.77
2019-05-13T21:44:53.087Z,2.20
2019-05-13T21:50:36.174Z,1.97
2019-05-13T21:53:02.033Z,1.83
2019-05-13T21:55:52.169Z,1.97
2019-05-13T21:58:22.865Z,1.70
2019-05-13T22:04:21.489Z,1.90
2019-05-13T22:07:31.546Z,1.90
2019-05-13T22:10:21.666Z,2.00
2019-05-13T22:13:14.910Z,1.70
2019-05-13T22:16:04.408Z,2.00
2019-05-13T22:18:54.050Z,1.60
2019-05-13T22:21:45.236Z,1.87
2019-05-13T22:24:34.649Z,1.90
2019-05-13T22:27:24.371Z,1.80
2019-05-13T22:30:14.081Z,2.03
2019-05-13T22:36:31.791Z,1.67
2019-05-13T22:39:22.480Z,1.80
2019-05-13T22:42:26.793Z,1.77
2019-05-13T22:45:03.222Z,1.90
2019-05-13T22:47:54.252Z,2.00
2019-05-13T22:50:43.996Z,1.70
2019-05-13T22:53:14.367Z,1.40
2019-05-13T22:56:04.002Z,1.83
2019-05-13T22:59:13.659Z,1.50
2019-05-13T23:02:02.825Z,1.70
2019-05-13T23:04:33.248Z,1.50
2019-05-13T23:07:38.102Z,1.60
2019-05-13T23:10:13.897Z,1.70
2019-05-13T23:13:08.185Z,1.90
2019-05-13T23:15:57.537Z,1.70
2019-05-13T23:18:27.829Z,1.70
2019-05-13T23:21:17.264Z,1.53
2019-05-13T23:24:16.018Z,1.50
2019-05-13T23:27:06.900Z,1.60
2019-05-13T23:29:37.218Z,2.20
2019-05-13T23:32:26.510Z,1.97
2019-05-13T23:37:55.470Z,1.80
2019-05-13T23:40:25.765Z,1.90
2019-05-13T23:43:15.138Z,1.97
2019-05-13T23:46:04.500Z,2.00
2019-05-13T23:48:54.053Z,1.60
2019-05-13T23:51:24.715Z,1.50
2019-05-13T23:53:55.906Z,2.37
2019-05-13T23:56:45.545Z,2.00
2019-05-13T23:59:34.872Z,1.50
